首页
METAR-TAF:

METAR-TAF

机场 :

杰克逊维尔国际机场

杰克逊维尔, 佛罗里达州, 美国

纬度: 30-29-40N, 经度: 081-41-36W, 海拔: 9米

当前天气观测

该预报发布于19分钟前的05:56 UTC
风速5节,风向
温度 24°C
湿度 89%
气压 1016 hPa
能見度: 16.1公里
少量云层高于2500英尺
阴天层高于17000英尺

METAR: KJAX 250556Z 08005KT 10SM FEW025 OVC170 24/22 A3000 RMK AO2 SLP158 T02440217 10267 20239 58005 $

时间: 02:15 (06:15 UTC)

预报

该预报发布于34分钟前的05:41 UTC
预报有效从25日的 06点(UTC)到 26日的 06点(UTC)
风速3节,风向多变
能見度: 10公里
散云层高于3500英尺
多云层高于20000英尺
短暂存在
从 25日的 10点(UTC)到 25日的 14点(UTC)
多云层高于2500英尺
从 25日的 1400点(UTC)
风速11节,风向
能見度: 10公里
散云层高于2500英尺
阴天层高于4500英尺
从 25日的 1700点(UTC)
风速13节,风向,有时为20节阵风
能見度: 10公里
散云层高于2500英尺
阴天层高于3500英尺, 积雨云.
附近有雷暴
从 25日的 2200点(UTC)
风速11节,风向
能見度: 10公里
散云层高于3000英尺, 积雨云.
阴天层高于8000英尺
附近有雷暴

TAF: KJAX 250541Z 2506/2606 VRB03KT P6SM SCT035 BKN200 TEMPO 2510/2514 BKN025 FM251400 10011KT P6SM SCT025 OVC045 FM251700 10013G20KT P6SM VCTS SCT025 OVC035CB FM252200 10011KT P6SM VCTS SCT030CB OVC080

超过4000个机场的气象观测和天气预报(METAR&TAF报告)。

可查询的气象台以黄色和红色小点在地图上表示。

将鼠标移到小点上方,可查看气象台名称。

然后点击查看天气观测和预报。

如需切换地图:点击带黑十字的绿色按钮放大地图;点击带横线的绿色按钮缩小地图;或者点击绿色箭头查看邻近地区的地图。


METAR-TAF: